sensor_id;sensor_type;location;lat;lon;timestamp;temperature;humidity
10883;DHT22;5494;51.796;10.952;2023-03-03T00:01:33;1.10;99.90
10883;DHT22;5494;51.796;10.952;2023-03-03T00:04:00;1.10;99.90
10883;DHT22;5494;51.796;10.952;2023-03-03T00:06:28;1.10;99.90
10883;DHT22;5494;51.796;10.952;2023-03-03T00:08:57;1.10;99.90
10883;DHT22;5494;51.796;10.952;2023-03-03T00:11:25;1.10;99.90
10883;DHT22;5494;51.796;10.952;2023-03-03T00:13:54;1.00;99.90
10883;DHT22;5494;51.796;10.952;2023-03-03T00:16:29;0.80;99.90
10883;DHT22;5494;51.796;10.952;2023-03-03T00:19:00;0.80;99.90
10883;DHT22;5494;51.796;10.952;2023-03-03T00:21:29;0.80;99.90
10883;DHT22;5494;51.796;10.952;2023-03-03T00:24:18;0.90;99.90
10883;DHT22;5494;51.796;10.952;2023-03-03T00:26:49;0.80;99.90
10883;DHT22;5494;51.796;10.952;2023-03-03T00:29:29;0.80;99.90
10883;DHT22;5494;51.796;10.952;2023-03-03T00:32:20;0.90;99.90
10883;DHT22;5494;51.796;10.952;2023-03-03T00:34:53;0.90;99.90
10883;DHT22;5494;51.796;10.952;2023-03-03T00:37:30;1.00;99.90
10883;DHT22;5494;51.796;10.952;2023-03-03T00:40:18;0.90;99.90
10883;DHT22;5494;51.796;10.952;2023-03-03T00:42:51;1.00;99.90
10883;DHT22;5494;51.796;10.952;2023-03-03T00:45:27;1.00;99.90
10883;DHT22;5494;51.796;10.952;2023-03-03T00:47:58;1.00;99.90
10883;DHT22;5494;51.796;10.952;2023-03-03T00:50:40;1.00;99.90
10883;DHT22;5494;51.796;10.952;2023-03-03T00:53:11;1.10;99.90
10883;DHT22;5494;51.796;10.952;2023-03-03T00:55:42;1.10;99.90
10883;DHT22;5494;51.796;10.952;2023-03-03T00:58:12;1.10;99.90
10883;DHT22;5494;51.796;10.952;2023-03-03T01:00:44;1.10;99.90
10883;DHT22;5494;51.796;10.952;2023-03-03T01:03:17;1.10;99.90
10883;DHT22;5494;51.796;10.952;2023-03-03T01:05:49;1.10;99.90
10883;DHT22;5494;51.796;10.952;2023-03-03T01:08:18;1.10;99.90
10883;DHT22;5494;51.796;10.952;2023-03-03T01:10:49;1.10;99.90
10883;DHT22;5494;51.796;10.952;2023-03-03T01:13:21;1.10;99.90
10883;DHT22;5494;51.796;10.952;2023-03-03T01:15:52;1.20;99.90
10883;DHT22;5494;51.796;10.952;2023-03-03T01:18:20;1.20;99.90
10883;DHT22;5494;51.796;10.952;2023-03-03T01:20:51;1.20;99.90
10883;DHT22;5494;51.796;10.952;2023-03-03T01:23:19;1.20;99.90
10883;DHT22;5494;51.796;10.952;2023-03-03T01:25:47;1.20;99.90
10883;DHT22;5494;51.796;10.952;2023-03-03T01:28:15;1.20;99.90
10883;DHT22;5494;51.796;10.952;2023-03-03T01:30:44;1.30;99.90
10883;DHT22;5494;51.796;10.952;2023-03-03T01:33:12;1.20;99.90
10883;DHT22;5494;51.796;10.952;2023-03-03T01:35:43;1.20;99.90
10883;DHT22;5494;51.796;10.952;2023-03-03T01:38:13;1.20;99.90
10883;DHT22;5494;51.796;10.952;2023-03-03T01:40:41;1.30;99.90
10883;DHT22;5494;51.796;10.952;2023-03-03T01:43:13;1.10;99.90
10883;DHT22;5494;51.796;10.952;2023-03-03T01:49:04;1.10;99.90
10883;DHT22;5494;51.796;10.952;2023-03-03T01:51:36;1.00;99.90
10883;DHT22;5494;51.796;10.952;2023-03-03T01:54:15;1.00;99.90
10883;DHT22;5494;51.796;10.952;2023-03-03T01:56:48;1.00;99.90
10883;DHT22;5494;51.796;10.952;2023-03-03T01:59:20;0.90;99.90
10883;DHT22;5494;51.796;10.952;2023-03-03T02:01:51;0.90;99.90
10883;DHT22;5494;51.796;10.952;2023-03-03T02:04:20;0.80;99.90
10883;DHT22;5494;51.796;10.952;2023-03-03T02:06:52;0.70;99.90
10883;DHT22;5494;51.796;10.952;2023-03-03T02:09:31;0.70;99.90
10883;DHT22;5494;51.796;10.952;2023-03-03T02:12:07;0.50;99.90
10883;DHT22;5494;51.796;10.952;2023-03-03T02:14:37;0.50;99.90
10883;DHT22;5494;51.796;10.952;2023-03-03T02:17:06;0.50;99.90
10883;DHT22;5494;51.796;10.952;2023-03-03T02:19:42;0.50;99.90
10883;DHT22;5494;51.796;10.952;2023-03-03T02:22:23;0.60;99.90
10883;DHT22;5494;51.796;10.952;2023-03-03T02:25:02;0.60;99.90
10883;DHT22;5494;51.796;10.952;2023-03-03T02:27:36;0.60;99.90
10883;DHT22;5494;51.796;10.952;2023-03-03T02:30:13;0.60;99.90
10883;DHT22;5494;51.796;10.952;2023-03-03T02:32:43;0.60;99.90
10883;DHT22;5494;51.796;10.952;2023-03-03T02:35:30;0.50;99.90
10883;DHT22;5494;51.796;10.952;2023-03-03T02:38:13;0.60;99.90
10883;DHT22;5494;51.796;10.952;2023-03-03T02:40:58;0.50;99.90
10883;DHT22;5494;51.796;10.952;2023-03-03T02:43:38;0.00;99.90
10883;DHT22;5494;51.796;10.952;2023-03-03T02:46:11;0.40;99.90
10883;DHT22;5494;51.796;10.952;2023-03-03T02:48:39;0.40;99.90
10883;DHT22;5494;51.796;10.952;2023-03-03T02:51:08;0.40;99.90
10883;DHT22;5494;51.796;10.952;2023-03-03T02:53:36;0.50;99.90
10883;DHT22;5494;51.796;10.952;2023-03-03T02:56:05;0.50;99.90
10883;DHT22;5494;51.796;10.952;2023-03-03T02:58:36;0.40;99.90
10883;DHT22;5494;51.796;10.952;2023-03-03T03:01:04;0.40;99.90
10883;DHT22;5494;51.796;10.952;2023-03-03T03:03:33;0.40;99.90
10883;DHT22;5494;51.796;10.952;2023-03-03T03:06:04;0.40;99.90
10883;DHT22;5494;51.796;10.952;2023-03-03T03:08:34;0.40;99.90
10883;DHT22;5494;51.796;10.952;2023-03-03T03:11:02;0.40;99.90
10883;DHT22;5494;51.796;10.952;2023-03-03T03:13:32;0.40;99.90
10883;DHT22;5494;51.796;10.952;2023-03-03T03:16:05;0.40;99.90
10883;DHT22;5494;51.796;10.952;2023-03-03T03:18:34;0.40;99.90
10883;DHT22;5494;51.796;10.952;2023-03-03T03:21:07;0.30;99.90
10883;DHT22;5494;51.796;10.952;2023-03-03T03:23:37;0.40;99.90
10883;DHT22;5494;51.796;10.952;2023-03-03T03:26:06;0.30;99.90
10883;DHT22;5494;51.796;10.952;2023-03-03T03:28:35;0.20;99.90
10883;DHT22;5494;51.796;10.952;2023-03-03T03:31:07;0.20;99.90
10883;DHT22;5494;51.796;10.952;2023-03-03T03:33:35;0.20;99.90
10883;DHT22;5494;51.796;10.952;2023-03-03T03:36:04;0.20;99.90
10883;DHT22;5494;51.796;10.952;2023-03-03T03:38:34;0.20;99.90
10883;DHT22;5494;51.796;10.952;2023-03-03T03:41:05;0.20;99.90
10883;DHT22;5494;51.796;10.952;2023-03-03T03:43:34;0.30;99.90
10883;DHT22;5494;51.796;10.952;2023-03-03T03:46:05;0.20;99.90
10883;DHT22;5494;51.796;10.952;2023-03-03T03:48:33;0.20;99.90
10883;DHT22;5494;51.796;10.952;2023-03-03T03:51:04;0.20;99.90
10883;DHT22;5494;51.796;10.952;2023-03-03T03:53:33;0.20;99.90
10883;DHT22;5494;51.796;10.952;2023-03-03T03:56:01;0.10;99.90
10883;DHT22;5494;51.796;10.952;2023-03-03T03:58:29;0.10;99.90
10883;DHT22;5494;51.796;10.952;2023-03-03T04:01:03;0.20;99.90
10883;DHT22;5494;51.796;10.952;2023-03-03T04:03:38;0.20;99.90
10883;DHT22;5494;51.796;10.952;2023-03-03T04:06:09;0.20;99.90
10883;DHT22;5494;51.796;10.952;2023-03-03T04:08:37;0.20;99.90
10883;DHT22;5494;51.796;10.952;2023-03-03T04:11:06;0.20;99.90
10883;DHT22;5494;51.796;10.952;2023-03-03T04:13:35;0.20;99.90
10883;DHT22;5494;51.796;10.952;2023-03-03T04:16:05;0.20;99.90
10883;DHT22;5494;51.796;10.952;2023-03-03T04:18:34;0.20;99.90
10883;DHT22;5494;51.796;10.952;2023-03-03T04:21:04;0.20;99.90
10883;DHT22;5494;51.796;10.952;2023-03-03T04:23:32;0.20;99.90
10883;DHT22;5494;51.796;10.952;2023-03-03T04:26:01;0.20;99.90
10883;DHT22;5494;51.796;10.952;2023-03-03T04:28:29;0.20;99.90
10883;DHT22;5494;51.796;10.952;2023-03-03T04:30:58;0.20;99.90
10883;DHT22;5494;51.796;10.952;2023-03-03T04:33:27;0.20;99.90
10883;DHT22;5494;51.796;10.952;2023-03-03T04:35:55;0.10;99.90
10883;DHT22;5494;51.796;10.952;2023-03-03T04:38:25;0.10;99.90
10883;DHT22;5494;51.796;10.952;2023-03-03T04:40:55;0.20;99.90
10883;DHT22;5494;51.796;10.952;2023-03-03T04:43:25;0.20;99.90
10883;DHT22;5494;51.796;10.952;2023-03-03T04:45:55;0.20;99.90
10883;DHT22;5494;51.796;10.952;2023-03-03T04:48:23;0.20;99.90
10883;DHT22;5494;51.796;10.952;2023-03-03T04:50:51;0.20;99.90
10883;DHT22;5494;51.796;10.952;2023-03-03T04:53:19;0.20;99.90
10883;DHT22;5494;51.796;10.952;2023-03-03T04:55:50;0.20;99.90
10883;DHT22;5494;51.796;10.952;2023-03-03T04:58:20;0.20;99.90
10883;DHT22;5494;51.796;10.952;2023-03-03T05:00:53;0.10;99.90
10883;DHT22;5494;51.796;10.952;2023-03-03T05:03:24;0.10;99.90
10883;DHT22;5494;51.796;10.952;2023-03-03T05:05:53;0.20;99.90
10883;DHT22;5494;51.796;10.952;2023-03-03T05:08:21;0.20;99.90
10883;DHT22;5494;51.796;10.952;2023-03-03T05:10:52;0.20;99.90
10883;DHT22;5494;51.796;10.952;2023-03-03T05:13:21;0.20;99.90
10883;DHT22;5494;51.796;10.952;2023-03-03T05:15:50;0.20;99.90
10883;DHT22;5494;51.796;10.952;2023-03-03T05:18:18;0.20;99.90
10883;DHT22;5494;51.796;10.952;2023-03-03T05:20:47;0.10;99.90
10883;DHT22;5494;51.796;10.952;2023-03-03T05:23:15;-0.10;99.90
10883;DHT22;5494;51.796;10.952;2023-03-03T05:25:46;-0.20;99.90
10883;DHT22;5494;51.796;10.952;2023-03-03T05:28:16;-0.10;99.90
10883;DHT22;5494;51.796;10.952;2023-03-03T05:30:45;0.00;99.90
10883;DHT22;5494;51.796;10.952;2023-03-03T05:33:15;0.00;99.90
10883;DHT22;5494;51.796;10.952;2023-03-03T05:35:44;0.10;99.90
10883;DHT22;5494;51.796;10.952;2023-03-03T05:38:12;0.20;99.90
10883;DHT22;5494;51.796;10.952;2023-03-03T05:40:40;0.20;99.90
10883;DHT22;5494;51.796;10.952;2023-03-03T05:43:09;0.30;99.90
10883;DHT22;5494;51.796;10.952;2023-03-03T05:45:38;0.30;99.90
10883;DHT22;5494;51.796;10.952;2023-03-03T05:48:06;0.30;99.90
10883;DHT22;5494;51.796;10.952;2023-03-03T05:50:36;0.40;99.90
10883;DHT22;5494;51.796;10.952;2023-03-03T05:53:05;1.10;99.90
10883;DHT22;5494;51.796;10.952;2023-03-03T05:55:32;0.30;99.90
10883;DHT22;5494;51.796;10.952;2023-03-03T05:58:00;0.30;99.90
10883;DHT22;5494;51.796;10.952;2023-03-03T06:00:28;0.30;99.90
10883;DHT22;5494;51.796;10.952;2023-03-03T06:02:58;0.30;99.90
10883;DHT22;5494;51.796;10.952;2023-03-03T06:05:26;0.40;99.90
10883;DHT22;5494;51.796;10.952;2023-03-03T06:07:54;0.40;99.90
10883;DHT22;5494;51.796;10.952;2023-03-03T06:10:22;0.40;99.90
10883;DHT22;5494;51.796;10.952;2023-03-03T06:12:54;0.40;99.90
10883;DHT22;5494;51.796;10.952;2023-03-03T06:15:22;0.40;99.90
10883;DHT22;5494;51.796;10.952;2023-03-03T06:17:50;0.50;99.90
10883;DHT22;5494;51.796;10.952;2023-03-03T06:20:20;0.50;99.90
10883;DHT22;5494;51.796;10.952;2023-03-03T06:22:48;0.50;99.90
10883;DHT22;5494;51.796;10.952;2023-03-03T06:25:16;0.50;99.90
10883;DHT22;5494;51.796;10.952;2023-03-03T06:27:44;0.50;99.90
10883;DHT22;5494;51.796;10.952;2023-03-03T06:30:12;0.60;99.90
10883;DHT22;5494;51.796;10.952;2023-03-03T06:32:41;0.60;99.90
10883;DHT22;5494;51.796;10.952;2023-03-03T06:35:09;0.60;99.90
10883;DHT22;5494;51.796;10.952;2023-03-03T06:37:38;0.70;99.90
10883;DHT22;5494;51.796;10.952;2023-03-03T06:40:07;0.70;99.90
10883;DHT22;5494;51.796;10.952;2023-03-03T06:42:36;0.70;99.90
10883;DHT22;5494;51.796;10.952;2023-03-03T06:45:05;0.70;99.90
10883;DHT22;5494;51.796;10.952;2023-03-03T06:47:33;0.60;99.90
10883;DHT22;5494;51.796;10.952;2023-03-03T06:50:01;0.40;99.90
10883;DHT22;5494;51.796;10.952;2023-03-03T06:52:29;0.40;99.90
10883;DHT22;5494;51.796;10.952;2023-03-03T06:55:00;0.40;99.90
10883;DHT22;5494;51.796;10.952;2023-03-03T06:57:36;0.40;99.90
10883;DHT22;5494;51.796;10.952;2023-03-03T07:00:14;0.50;99.90
10883;DHT22;5494;51.796;10.952;2023-03-03T07:02:46;0.50;99.90
10883;DHT22;5494;51.796;10.952;2023-03-03T07:05:16;0.60;99.90
10883;DHT22;5494;51.796;10.952;2023-03-03T07:07:45;0.70;99.90
10883;DHT22;5494;51.796;10.952;2023-03-03T07:10:21;0.70;99.90
10883;DHT22;5494;51.796;10.952;2023-03-03T07:12:50;0.80;99.90
10883;DHT22;5494;51.796;10.952;2023-03-03T07:15:20;0.90;99.90
10883;DHT22;5494;51.796;10.952;2023-03-03T07:17:53;0.90;99.90
10883;DHT22;5494;51.796;10.952;2023-03-03T07:20:27;0.90;99.90
10883;DHT22;5494;51.796;10.952;2023-03-03T07:23:01;1.00;99.90
10883;DHT22;5494;51.796;10.952;2023-03-03T07:25:46;0.90;99.90
10883;DHT22;5494;51.796;10.952;2023-03-03T07:28:20;1.00;99.90
10883;DHT22;5494;51.796;10.952;2023-03-03T07:30:50;1.00;99.90
10883;DHT22;5494;51.796;10.952;2023-03-03T07:33:24;1.00;99.90
10883;DHT22;5494;51.796;10.952;2023-03-03T07:35:55;1.10;99.90
10883;DHT22;5494;51.796;10.952;2023-03-03T07:38:30;1.20;99.90
10883;DHT22;5494;51.796;10.952;2023-03-03T07:41:10;1.30;99.90
10883;DHT22;5494;51.796;10.952;2023-03-03T07:43:49;1.20;99.90
10883;DHT22;5494;51.796;10.952;2023-03-03T07:46:29;1.30;99.90
10883;DHT22;5494;51.796;10.952;2023-03-03T07:49:15;1.30;99.90
10883;DHT22;5494;51.796;10.952;2023-03-03T07:51:52;1.50;99.90
10883;DHT22;5494;51.796;10.952;2023-03-03T07:54:29;1.60;99.90
10883;DHT22;5494;51.796;10.952;2023-03-03T07:57:16;1.70;99.90
10883;DHT22;5494;51.796;10.952;2023-03-03T07:59:49;1.70;99.90
10883;DHT22;5494;51.796;10.952;2023-03-03T08:02:37;1.70;99.90
10883;DHT22;5494;51.796;10.952;2023-03-03T08:05:28;1.70;99.90
10883;DHT22;5494;51.796;10.952;2023-03-03T08:08:14;1.80;99.90
10883;DHT22;5494;51.796;10.952;2023-03-03T08:10:56;1.80;99.90
10883;DHT22;5494;51.796;10.952;2023-03-03T08:13:35;1.90;99.90
10883;DHT22;5494;51.796;10.952;2023-03-03T08:16:24;2.00;99.90
10883;DHT22;5494;51.796;10.952;2023-03-03T08:19:03;2.10;99.90
10883;DHT22;5494;51.796;10.952;2023-03-03T08:21:32;2.10;99.90
10883;DHT22;5494;51.796;10.952;2023-03-03T08:24:02;2.20;99.90
10883;DHT22;5494;51.796;10.952;2023-03-03T08:26:31;2.30;99.90
10883;DHT22;5494;51.796;10.952;2023-03-03T08:29:00;2.30;99.90
10883;DHT22;5494;51.796;10.952;2023-03-03T08:31:28;2.40;99.90
10883;DHT22;5494;51.796;10.952;2023-03-03T08:34:07;2.40;99.90
10883;DHT22;5494;51.796;10.952;2023-03-03T08:36:35;2.40;99.90
10883;DHT22;5494;51.796;10.952;2023-03-03T08:39:04;2.40;99.90
10883;DHT22;5494;51.796;10.952;2023-03-03T08:41:32;2.50;99.90
10883;DHT22;5494;51.796;10.952;2023-03-03T08:44:02;2.60;99.90
10883;DHT22;5494;51.796;10.952;2023-03-03T08:46:31;2.70;99.90
10883;DHT22;5494;51.796;10.952;2023-03-03T08:48:59;2.70;99.90
10883;DHT22;5494;51.796;10.952;2023-03-03T08:51:27;2.60;99.90
10883;DHT22;5494;51.796;10.952;2023-03-03T08:53:55;2.40;99.90
10883;DHT22;5494;51.796;10.952;2023-03-03T08:56:23;2.30;99.90
10883;DHT22;5494;51.796;10.952;2023-03-03T08:58:51;2.20;99.90
10883;DHT22;5494;51.796;10.952;2023-03-03T09:01:30;2.30;99.90
10883;DHT22;5494;51.796;10.952;2023-03-03T09:03:59;2.50;99.90
10883;DHT22;5494;51.796;10.952;2023-03-03T09:06:27;2.70;99.90
10883;DHT22;5494;51.796;10.952;2023-03-03T09:08:55;2.90;99.90
10883;DHT22;5494;51.796;10.952;2023-03-03T09:11:28;2.90;99.90
10883;DHT22;5494;51.796;10.952;2023-03-03T09:14:01;3.00;99.90
10883;DHT22;5494;51.796;10.952;2023-03-03T09:16:38;2.90;99.90
10883;DHT22;5494;51.796;10.952;2023-03-03T09:19:20;2.90;99.90
10883;DHT22;5494;51.796;10.952;2023-03-03T09:21:51;2.70;99.90
10883;DHT22;5494;51.796;10.952;2023-03-03T09:24:25;2.80;99.90
10883;DHT22;5494;51.796;10.952;2023-03-03T09:26:55;3.00;99.90
10883;DHT22;5494;51.796;10.952;2023-03-03T09:29:26;3.10;99.90
10883;DHT22;5494;51.796;10.952;2023-03-03T09:31:58;3.30;99.90
10883;DHT22;5494;51.796;10.952;2023-03-03T09:34:37;3.40;99.90
10883;DHT22;5494;51.796;10.952;2023-03-03T09:37:18;3.40;99.90
10883;DHT22;5494;51.796;10.952;2023-03-03T09:39:49;3.50;99.90
10883;DHT22;5494;51.796;10.952;2023-03-03T09:42:27;3.40;99.90
10883;DHT22;5494;51.796;10.952;2023-03-03T09:45:28;3.30;99.90
10883;DHT22;5494;51.796;10.952;2023-03-03T09:48:31;3.40;99.90
10883;DHT22;5494;51.796;10.952;2023-03-03T09:51:35;3.50;99.90
10883;DHT22;5494;51.796;10.952;2023-03-03T09:54:30;3.70;99.90
10883;DHT22;5494;51.796;10.952;2023-03-03T09:57:13;3.70;99.90
10883;DHT22;5494;51.796;10.952;2023-03-03T09:59:56;3.90;99.90
10883;DHT22;5494;51.796;10.952;2023-03-03T10:02:58;4.10;99.90
10883;DHT22;5494;51.796;10.952;2023-03-03T10:05:58;4.30;99.90
10883;DHT22;5494;51.796;10.952;2023-03-03T10:08:41;4.50;99.90
10883;DHT22;5494;51.796;10.952;2023-03-03T10:11:25;4.50;99.90
10883;DHT22;5494;51.796;10.952;2023-03-03T10:17:27;4.30;99.90
10883;DHT22;5494;51.796;10.952;2023-03-03T10:20:21;4.20;99.90
10883;DHT22;5494;51.796;10.952;2023-03-03T10:23:18;4.30;99.90
10883;DHT22;5494;51.796;10.952;2023-03-03T10:25:53;4.30;99.90
10883;DHT22;5494;51.796;10.952;2023-03-03T10:28:57;4.30;99.90
10883;DHT22;5494;51.796;10.952;2023-03-03T10:31:47;4.50;99.90
10883;DHT22;5494;51.796;10.952;2023-03-03T10:34:38;4.60;99.90
10883;DHT22;5494;51.796;10.952;2023-03-03T10:37:21;4.20;99.90
10883;DHT22;5494;51.796;10.952;2023-03-03T10:40:09;3.90;99.90
10883;DHT22;5494;51.796;10.952;2023-03-03T10:43:01;4.00;99.90
10883;DHT22;5494;51.796;10.952;2023-03-03T10:46:06;4.00;99.90
10883;DHT22;5494;51.796;10.952;2023-03-03T10:48:57;4.30;99.90
10883;DHT22;5494;51.796;10.952;2023-03-03T10:51:38;4.40;99.90
10883;DHT22;5494;51.796;10.952;2023-03-03T10:54:42;4.40;99.90
10883;DHT22;5494;51.796;10.952;2023-03-03T10:57:25;4.40;99.90
10883;DHT22;5494;51.796;10.952;2023-03-03T11:00:15;4.40;99.90
10883;DHT22;5494;51.796;10.952;2023-03-03T11:03:06;4.60;99.90
10883;DHT22;5494;51.796;10.952;2023-03-03T11:06:05;4.90;99.90
10883;DHT22;5494;51.796;10.952;2023-03-03T11:08:45;5.20;99.90
10883;DHT22;5494;51.796;10.952;2023-03-03T11:11:26;5.30;99.90
10883;DHT22;5494;51.796;10.952;2023-03-03T11:14:09;5.30;99.90
10883;DHT22;5494;51.796;10.952;2023-03-03T11:16:51;5.40;99.90
10883;DHT22;5494;51.796;10.952;2023-03-03T11:19:35;6.00;99.90
10883;DHT22;5494;51.796;10.952;2023-03-03T11:22:21;5.30;99.90
10883;DHT22;5494;51.796;10.952;2023-03-03T13:29:42;5.60;99.90
10883;DHT22;5494;51.796;10.952;2023-03-03T13:32:41;5.70;99.90
10883;DHT22;5494;51.796;10.952;2023-03-03T13:35:41;5.90;99.90
10883;DHT22;5494;51.796;10.952;2023-03-03T13:38:35;6.00;99.90
10883;DHT22;5494;51.796;10.952;2023-03-03T13:41:32;5.70;99.90
10883;DHT22;5494;51.796;10.952;2023-03-03T13:44:30;5.10;99.90
10883;DHT22;5494;51.796;10.952;2023-03-03T13:47:31;5.40;99.90
10883;DHT22;5494;51.796;10.952;2023-03-03T13:50:18;5.10;99.90
10883;DHT22;5494;51.796;10.952;2023-03-03T13:53:11;5.20;99.90
10883;DHT22;5494;51.796;10.952;2023-03-03T13:56:01;5.30;99.90
10883;DHT22;5494;51.796;10.952;2023-03-03T13:58:40;5.30;99.90
10883;DHT22;5494;51.796;10.952;2023-03-03T14:01:17;5.20;99.90
10883;DHT22;5494;51.796;10.952;2023-03-03T14:04:05;5.20;99.90
10883;DHT22;5494;51.796;10.952;2023-03-03T14:06:43;5.10;99.90
10883;DHT22;5494;51.796;10.952;2023-03-03T14:09:34;4.90;99.90
10883;DHT22;5494;51.796;10.952;2023-03-03T14:12:21;5.00;99.90
10883;DHT22;5494;51.796;10.952;2023-03-03T14:14:59;5.10;99.90
10883;DHT22;5494;51.796;10.952;2023-03-03T14:17:41;5.20;99.90
10883;DHT22;5494;51.796;10.952;2023-03-03T14:20:23;5.20;99.90
10883;DHT22;5494;51.796;10.952;2023-03-03T14:22:57;5.40;99.90
10883;DHT22;5494;51.796;10.952;2023-03-03T14:25:49;5.50;99.90
10883;DHT22;5494;51.796;10.952;2023-03-03T14:28:22;5.50;99.90
10883;DHT22;5494;51.796;10.952;2023-03-03T14:30:54;5.40;99.90
10883;DHT22;5494;51.796;10.952;2023-03-03T14:33:28;5.40;99.90
10883;DHT22;5494;51.796;10.952;2023-03-03T14:36:17;5.50;99.90
10883;DHT22;5494;51.796;10.952;2023-03-03T14:38:59;5.50;99.90
10883;DHT22;5494;51.796;10.952;2023-03-03T14:41:37;5.40;99.90
10883;DHT22;5494;51.796;10.952;2023-03-03T14:44:27;5.30;99.90
10883;DHT22;5494;51.796;10.952;2023-03-03T14:47:10;5.20;99.90
10883;DHT22;5494;51.796;10.952;2023-03-03T14:49:46;5.20;99.90
10883;DHT22;5494;51.796;10.952;2023-03-03T14:52:23;5.20;99.90
10883;DHT22;5494;51.796;10.952;2023-03-03T14:54:54;5.10;99.90
10883;DHT22;5494;51.796;10.952;2023-03-03T14:57:38;5.00;99.90
10883;DHT22;5494;51.796;10.952;2023-03-03T15:00:29;5.00;99.90
10883;DHT22;5494;51.796;10.952;2023-03-03T15:03:16;4.90;99.90
10883;DHT22;5494;51.796;10.952;2023-03-03T15:05:49;4.80;99.90
10883;DHT22;5494;51.796;10.952;2023-03-03T15:08:30;4.60;99.90
10883;DHT22;5494;51.796;10.952;2023-03-03T15:11:19;4.50;99.90
10883;DHT22;5494;51.796;10.952;2023-03-03T15:13:53;4.40;99.90
10883;DHT22;5494;51.796;10.952;2023-03-03T15:16:37;4.40;99.90
10883;DHT22;5494;51.796;10.952;2023-03-03T15:19:16;4.40;99.90
10883;DHT22;5494;51.796;10.952;2023-03-03T15:22:04;4.30;99.90
10883;DHT22;5494;51.796;10.952;2023-03-03T15:24:45;4.30;99.90
10883;DHT22;5494;51.796;10.952;2023-03-03T15:27:27;4.20;99.90
10883;DHT22;5494;51.796;10.952;2023-03-03T15:30:03;4.20;99.90
10883;DHT22;5494;51.796;10.952;2023-03-03T15:32:45;4.10;99.90
10883;DHT22;5494;51.796;10.952;2023-03-03T15:35:33;4.00;99.90
10883;DHT22;5494;51.796;10.952;2023-03-03T15:41:25;3.90;99.90
10883;DHT22;5494;51.796;10.952;2023-03-03T15:44:12;3.90;99.90
10883;DHT22;5494;51.796;10.952;2023-03-03T15:47:09;3.90;99.90
10883;DHT22;5494;51.796;10.952;2023-03-03T15:50:03;3.80;99.90
10883;DHT22;5494;51.796;10.952;2023-03-03T15:52:57;3.80;99.90
10883;DHT22;5494;51.796;10.952;2023-03-03T15:55:57;3.80;99.90
10883;DHT22;5494;51.796;10.952;2023-03-03T15:58:57;3.70;99.90
10883;DHT22;5494;51.796;10.952;2023-03-03T16:01:40;3.70;99.90
10883;DHT22;5494;51.796;10.952;2023-03-03T16:04:16;3.60;99.90
10883;DHT22;5494;51.796;10.952;2023-03-03T16:06:50;3.60;99.90
10883;DHT22;5494;51.796;10.952;2023-03-03T16:09:31;3.50;99.90
10883;DHT22;5494;51.796;10.952;2023-03-03T16:12:20;3.50;99.90
10883;DHT22;5494;51.796;10.952;2023-03-03T16:15:14;3.40;99.90
10883;DHT22;5494;51.796;10.952;2023-03-03T16:17:55;3.40;99.90
10883;DHT22;5494;51.796;10.952;2023-03-03T16:20:33;3.30;99.90
10883;DHT22;5494;51.796;10.952;2023-03-03T16:23:16;3.30;99.90
10883;DHT22;5494;51.796;10.952;2023-03-03T16:26:12;3.20;99.90
10883;DHT22;5494;51.796;10.952;2023-03-03T16:29:07;3.20;99.90
10883;DHT22;5494;51.796;10.952;2023-03-03T16:31:59;3.20;99.90
10883;DHT22;5494;51.796;10.952;2023-03-03T16:34:36;3.10;99.90
10883;DHT22;5494;51.796;10.952;2023-03-03T16:37:17;3.10;99.90
10883;DHT22;5494;51.796;10.952;2023-03-03T16:39:55;3.00;99.90
10883;DHT22;5494;51.796;10.952;2023-03-03T16:42:35;3.00;99.90
10883;DHT22;5494;51.796;10.952;2023-03-03T16:45:20;3.10;99.90
10883;DHT22;5494;51.796;10.952;2023-03-03T16:48:17;3.00;99.90
10883;DHT22;5494;51.796;10.952;2023-03-03T16:51:08;3.00;99.90
10883;DHT22;5494;51.796;10.952;2023-03-03T16:54:00;3.00;99.90
10883;DHT22;5494;51.796;10.952;2023-03-03T16:56:36;2.90;99.90
10883;DHT22;5494;51.796;10.952;2023-03-03T16:59:33;2.80;99.90
10883;DHT22;5494;51.796;10.952;2023-03-03T17:02:23;2.70;99.90
10883;DHT22;5494;51.796;10.952;2023-03-03T17:05:19;2.20;99.90
10883;DHT22;5494;51.796;10.952;2023-03-03T17:08:06;2.60;99.90
10883;DHT22;5494;51.796;10.952;2023-03-03T17:10:52;2.50;99.90
10883;DHT22;5494;51.796;10.952;2023-03-03T17:13:46;2.40;99.90
10883;DHT22;5494;51.796;10.952;2023-03-03T17:16:30;2.30;99.90
10883;DHT22;5494;51.796;10.952;2023-03-03T17:19:28;2.20;99.90
10883;DHT22;5494;51.796;10.952;2023-03-03T17:22:18;2.00;99.90
10883;DHT22;5494;51.796;10.952;2023-03-03T17:25:03;1.90;99.90
10883;DHT22;5494;51.796;10.952;2023-03-03T17:27:47;1.80;99.90
10883;DHT22;5494;51.796;10.952;2023-03-03T17:30:33;1.70;99.90
10883;DHT22;5494;51.796;10.952;2023-03-03T17:33:26;1.70;99.90
10883;DHT22;5494;51.796;10.952;2023-03-03T17:36:14;1.70;99.90
10883;DHT22;5494;51.796;10.952;2023-03-03T17:39:01;1.60;99.90
10883;DHT22;5494;51.796;10.952;2023-03-03T17:41:41;1.50;99.90
10883;DHT22;5494;51.796;10.952;2023-03-03T17:44:24;1.60;99.90
10883;DHT22;5494;51.796;10.952;2023-03-03T17:47:03;1.50;99.90
10883;DHT22;5494;51.796;10.952;2023-03-03T17:49:53;1.50;99.90
10883;DHT22;5494;51.796;10.952;2023-03-03T17:52:45;1.40;99.90
10883;DHT22;5494;51.796;10.952;2023-03-03T17:55:48;1.40;99.90
10883;DHT22;5494;51.796;10.952;2023-03-03T18:01:48;1.30;99.90
10883;DHT22;5494;51.796;10.952;2023-03-03T18:04:45;1.30;99.90
10883;DHT22;5494;51.796;10.952;2023-03-03T18:07:44;1.30;99.90
10883;DHT22;5494;51.796;10.952;2023-03-03T18:14:03;1.50;99.90
10883;DHT22;5494;51.796;10.952;2023-03-03T18:17:03;1.60;99.90
10883;DHT22;5494;51.796;10.952;2023-03-03T18:20:20;1.80;99.90
10883;DHT22;5494;51.796;10.952;2023-03-03T18:22:56;1.80;99.90
10883;DHT22;5494;51.796;10.952;2023-03-03T18:25:53;1.90;99.90
10883;DHT22;5494;51.796;10.952;2023-03-03T18:28:36;1.90;99.90
10883;DHT22;5494;51.796;10.952;2023-03-03T18:31:21;2.00;99.90
10883;DHT22;5494;51.796;10.952;2023-03-03T18:34:01;2.10;99.90
10883;DHT22;5494;51.796;10.952;2023-03-03T18:36:37;2.10;99.90
10883;DHT22;5494;51.796;10.952;2023-03-03T18:39:35;2.10;99.90
10883;DHT22;5494;51.796;10.952;2023-03-03T18:45:49;2.10;99.90
10883;DHT22;5494;51.796;10.952;2023-03-03T18:48:17;1.70;99.90
10883;DHT22;5494;51.796;10.952;2023-03-03T18:50:49;2.10;99.90
10883;DHT22;5494;51.796;10.952;2023-03-03T18:53:24;2.10;99.90
10883;DHT22;5494;51.796;10.952;2023-03-03T18:55:54;2.10;99.90
10883;DHT22;5494;51.796;10.952;2023-03-03T18:58:29;2.80;99.90
10883;DHT22;5494;51.796;10.952;2023-03-03T19:01:13;2.10;99.90
10883;DHT22;5494;51.796;10.952;2023-03-03T19:04:17;2.00;99.90
10883;DHT22;5494;51.796;10.952;2023-03-03T19:07:13;1.90;99.90
10883;DHT22;5494;51.796;10.952;2023-03-03T19:09:56;1.80;99.90
10883;DHT22;5494;51.796;10.952;2023-03-03T19:12:49;1.70;99.90
10883;DHT22;5494;51.796;10.952;2023-03-03T19:15:49;1.60;99.90
10883;DHT22;5494;51.796;10.952;2023-03-03T19:18:24;1.40;99.90